Time;durP1;ratioP1;P1;durP2;ratioP2;P2;SDS_P1;SDS_P2;PMS_P1;PMS_P2;Temp;Humidity;BMP_temperature;BMP_pressure;BME280_temperature;BME280_humidity;BME280_pressure;Samples;Min_cycle;Max_cycle;Signal;HPM_P1;HPM_P2
2023/04/29 00:02:23;;;;;;;51.30;34.72;;;;;;;8.47;100.00;101341.84;5031228;28;20040;-45
2023/04/29 00:04:48;;;;;;;49.75;34.45;;;;;;;8.40;100.00;101342.16;5031135;28;20032;-46
2023/04/29 00:07:14;;;;;;;50.88;36.20;;;;;;;8.34;100.00;101341.34;5031212;28;20025;-49
2023/04/29 00:09:40;;;;;;;48.55;33.25;;;;;;;8.38;100.00;101349.91;5031371;28;20065;-46
2023/04/29 00:12:05;;;;;;;47.65;34.33;;;;;;;8.35;100.00;101350.44;5031148;28;20060;-46
2023/04/29 00:14:31;;;;;;;52.65;35.65;;;;;;;8.26;100.00;101356.53;5031080;28;20480;-46
2023/04/29 00:16:57;;;;;;;51.85;33.67;;;;;;;8.28;100.00;101345.22;5031033;28;20034;-44
2023/04/29 00:19:22;;;;;;;51.75;33.80;;;;;;;8.30;100.00;101361.50;5031056;28;20152;-45
2023/04/29 00:21:48;;;;;;;44.85;31.58;;;;;;;8.25;100.00;101354.06;5030946;28;20033;-49
2023/04/29 00:24:13;;;;;;;42.38;30.17;;;;;;;8.22;100.00;101363.69;5029615;28;20083;-47
2023/04/29 00:26:40;;;;;;;38.90;27.90;;;;;;;8.20;100.00;101360.41;5030782;28;20103;-46
2023/04/29 00:29:05;;;;;;;41.97;30.25;;;;;;;8.23;100.00;101364.53;5031004;28;20439;-46
2023/04/29 00:31:31;;;;;;;39.65;30.17;;;;;;;8.25;100.00;101362.31;5030902;28;20116;-46
2023/04/29 00:33:57;;;;;;;36.85;27.92;;;;;;;8.25;100.00;101356.81;5030969;28;20029;-49
2023/04/29 00:36:22;;;;;;;36.95;27.90;;;;;;;8.32;100.00;101368.38;5031023;28;20100;-48
2023/04/29 00:38:47;;;;;;;39.47;28.38;;;;;;;8.31;100.00;101366.72;5030959;28;20393;-45
2023/04/29 00:41:13;;;;;;;38.72;27.25;;;;;;;8.27;100.00;101371.97;5030799;28;20117;-47
2023/04/29 00:43:39;;;;;;;38.50;28.10;;;;;;;8.34;100.00;101365.31;5029509;28;20528;-45
2023/04/29 00:46:04;;;;;;;39.05;28.58;;;;;;;8.36;100.00;101374.97;5030727;28;20033;-46
2023/04/29 00:48:29;;;;;;;39.42;28.98;;;;;;;8.34;100.00;101377.19;5029388;28;20034;-45
2023/04/29 00:50:55;;;;;;;40.70;29.95;;;;;;;8.29;100.00;101379.94;5030798;28;20112;-46
2023/04/29 00:53:22;;;;;;;43.05;31.25;;;;;;;8.25;100.00;101371.41;5030664;28;20521;-49
2023/04/29 00:55:50;;;;;;;45.13;31.23;;;;;;;8.25;100.00;101379.69;5030947;28;20037;-46
2023/04/29 00:58:16;;;;;;;45.40;33.42;;;;;;;8.18;100.00;101386.56;5030746;28;20104;-46
2023/04/29 01:00:42;;;;;;;48.78;33.97;;;;;;;8.16;100.00;101378.59;5030719;28;20025;-48
2023/04/29 01:03:09;;;;;;;42.35;31.80;;;;;;;8.12;100.00;101386.56;5030573;28;20021;-50
2023/04/29 01:05:34;;;;;;;48.40;34.40;;;;;;;8.14;100.00;101385.47;5030552;28;20446;-47
2023/04/29 01:08:14;;;;;;;49.97;34.70;;;;;;;8.18;100.00;101387.41;5030437;28;20040;-49
2023/04/29 01:10:55;;;;;;;49.40;35.60;;;;;;;8.17;100.00;101388.50;5030428;28;20029;-44
2023/04/29 01:13:30;;;;;;;48.28;34.78;;;;;;;8.19;100.00;101390.97;5034375;28;20033;-45
2023/04/29 01:16:11;;;;;;;54.25;40.03;;;;;;;8.15;100.00;101387.94;5032926;28;20017;-46
2023/04/29 01:18:53;;;;;;;50.00;37.13;;;;;;;8.07;100.00;101383.84;5034243;28;20040;-45
2023/04/29 01:21:20;;;;;;;51.88;36.22;;;;;;;8.08;100.00;101398.44;5034012;28;20037;-48
2023/04/29 01:23:45;;;;;;;52.72;37.58;;;;;;;8.04;100.00;101398.16;5032653;28;20049;-46
2023/04/29 01:26:10;;;;;;;53.35;36.55;;;;;;;8.04;100.00;101400.91;5033795;28;20037;-47
2023/04/29 01:28:52;;;;;;;49.85;35.95;;;;;;;8.10;100.00;101404.50;5033859;28;20025;-47
2023/04/29 01:31:40;;;;;;;50.53;36.78;;;;;;;8.08;100.00;101404.75;5033763;28;20033;-45
2023/04/29 01:34:24;;;;;;;51.88;34.05;;;;;;;8.06;100.00;101400.63;5033840;28;20025;-46
2023/04/29 01:37:07;;;;;;;50.05;33.97;;;;;;;7.99;100.00;101397.31;5033706;28;20030;-45
2023/04/29 01:39:56;;;;;;;47.43;34.03;;;;;;;8.06;100.00;101401.47;5033803;28;20037;-45
2023/04/29 01:42:24;;;;;;;48.78;31.65;;;;;;;8.04;100.00;101411.94;5033916;28;20272;-46
2023/04/29 01:44:54;;;;;;;47.30;34.03;;;;;;;8.02;100.00;101411.38;5033680;28;20060;-45
2023/04/29 01:47:20;;;;;;;52.05;32.72;;;;;;;8.02;100.00;101411.38;5033672;28;20025;-46
2023/04/29 01:49:45;;;;;;;45.45;31.17;;;;;;;8.04;100.00;101411.94;5033768;28;20116;-45
2023/04/29 01:52:11;;;;;;;48.13;31.92;;;;;;;8.02;100.00;101405.06;5033467;28;20103;-46
2023/04/29 01:54:37;;;;;;;49.45;33.05;;;;;;;8.02;100.00;101410.56;5033551;28;20034;-50
2023/04/29 01:57:03;;;;;;;46.83;32.58;;;;;;;7.98;100.00;101413.03;5033471;28;20040;-45
2023/04/29 01:59:29;;;;;;;47.85;30.92;;;;;;;7.98;100.00;101413.03;5033477;28;20235;-48
2023/04/29 02:01:57;;;;;;;49.47;31.42;;;;;;;8.02;100.00;101416.06;5033371;28;20037;-44
2023/04/29 02:04:23;;;;;;;46.47;30.52;;;;;;;8.00;100.00;101418.28;5033617;28;20144;-46
2023/04/29 02:06:49;;;;;;;47.67;32.22;;;;;;;8.04;100.00;101413.84;5033490;28;20568;-45
2023/04/29 02:09:14;;;;;;;50.88;35.67;;;;;;;8.04;100.00;101422.13;5033267;28;20041;-45
2023/04/29 02:11:40;;;;;;;50.50;32.88;;;;;;;8.04;100.00;101428.47;5031681;28;20056;-45
2023/04/29 02:14:05;;;;;;;50.65;35.17;;;;;;;8.02;100.00;101427.91;5031832;28;20021;-45
2023/04/29 02:16:30;;;;;;;49.92;33.50;;;;;;;8.02;100.00;101427.91;5032981;28;20029;-44
2023/04/29 02:18:55;;;;;;;48.80;32.50;;;;;;;8.02;100.00;101427.09;5033044;28;20029;-45
2023/04/29 02:21:21;;;;;;;53.10;34.35;;;;;;;8.00;100.00;101427.34;5033140;28;20025;-45
2023/04/29 02:23:46;;;;;;;56.90;36.05;;;;;;;7.99;100.00;101447.72;5031927;28;20132;-46
2023/04/29 02:26:12;;;;;;;54.90;34.47;;;;;;;7.97;100.00;101437.00;5031228;28;20021;-46
2023/04/29 02:28:38;;;;;;;54.75;36.42;;;;;;;7.96;100.00;101440.84;5033148;28;20481;-49
2023/04/29 02:31:03;;;;;;;53.17;35.47;;;;;;;7.94;100.00;101451.31;5032588;28;20125;-45
2023/04/29 02:33:28;;;;;;;50.50;33.63;;;;;;;7.95;100.00;101449.41;5032789;28;20037;-45
2023/04/29 02:35:54;;;;;;;53.85;33.72;;;;;;;7.96;100.00;101462.88;5032690;28;20104;-45
2023/04/29 02:38:19;;;;;;;54.75;36.08;;;;;;;7.95;100.00;101452.97;5032655;28;20037;-45
2023/04/29 02:40:45;;;;;;;60.78;40.60;;;;;;;7.89;100.00;101450.47;5032472;28;20021;-44
2023/04/29 02:43:11;;;;;;;54.83;36.97;;;;;;;7.84;100.00;101448.53;5032622;28;20437;-45
2023/04/29 02:45:38;;;;;;;60.90;39.63;;;;;;;7.81;100.00;101460.13;5032570;28;20116;-47
2023/04/29 02:48:05;;;;;;;57.50;37.20;;;;;;;7.85;100.00;101472.22;5032560;28;20060;-45
2023/04/29 02:50:31;;;;;;;55.33;36.60;;;;;;;7.84;100.00;101472.50;5032629;28;20033;-46
2023/04/29 02:52:57;;;;;;;58.20;35.55;;;;;;;7.83;100.00;101474.47;5032366;28;20065;-46
2023/04/29 02:55:22;;;;;;;54.78;36.50;;;;;;;7.80;100.00;101475.00;5032402;28;20466;-45
2023/04/29 02:57:47;;;;;;;56.72;36.03;;;;;;;7.75;100.00;101474.97;5032341;28;20083;-45
2023/04/29 03:00:13;;;;;;;56.38;35.55;;;;;;;7.74;100.00;101479.66;5032179;28;20033;-45
2023/04/29 03:02:38;;;;;;;53.85;34.55;;;;;;;7.77;100.00;101486.53;5030805;28;20025;-44
2023/04/29 03:05:04;;;;;;;51.42;33.63;;;;;;;7.78;100.00;101493.72;5030803;28;20022;-44
2023/04/29 03:07:30;;;;;;;55.97;34.22;;;;;;;7.78;100.00;101490.97;5030778;28;20029;-46
2023/04/29 03:09:56;;;;;;;54.63;34.05;;;;;;;7.79;100.00;101484.34;5032049;28;20049;-46
2023/04/29 03:12:22;;;;;;;51.58;34.42;;;;;;;7.74;100.00;101481.59;5032168;28;20045;-49
2023/04/29 03:14:47;;;;;;;56.40;36.53;;;;;;;7.72;100.00;101487.34;5031933;28;20029;-45
2023/04/29 03:17:13;;;;;;;54.67;34.30;;;;;;;7.72;100.00;101487.34;5031965;28;20021;-45
2023/04/29 03:19:38;;;;;;;57.55;36.97;;;;;;;7.75;100.00;101489.56;5031942;28;20150;-45
2023/04/29 03:22:04;;;;;;;58.55;34.50;;;;;;;7.73;100.00;101490.97;5030495;28;20076;-46
2023/04/29 03:24:29;;;;;;;58.13;39.38;;;;;;;7.74;100.00;101496.19;5030446;28;20030;-45
2023/04/29 03:26:54;;;;;;;55.05;35.53;;;;;;;7.74;100.00;101500.88;5030510;28;20513;-45
2023/04/29 03:29:20;;;;;;;55.75;36.03;;;;;;;7.72;100.00;101495.63;5030278;28;20535;-44
2023/04/29 03:31:45;;;;;;;56.33;35.50;;;;;;;7.76;100.00;101507.75;5031704;28;20036;-46
2023/04/29 03:34:13;;;;;;;52.60;33.60;;;;;;;7.78;100.00;101504.72;5031505;28;20033;-45
2023/04/29 03:36:38;;;;;;;51.60;35.05;;;;;;;7.80;100.00;101505.28;5032060;28;20033;-48
2023/04/29 03:39:04;;;;;;;52.35;33.90;;;;;;;7.76;100.00;101499.50;5031515;28;20117;-45
2023/04/29 03:41:29;;;;;;;49.22;33.70;;;;;;;7.80;100.00;101499.78;5031477;28;20029;-46
2023/04/29 03:43:59;;;;;;;50.75;34.35;;;;;;;7.78;100.00;101499.22;5031522;28;20025;-45
2023/04/29 03:46:25;;;;;;;49.60;32.40;;;;;;;7.79;100.00;101500.88;5031745;28;20474;-45
2023/04/29 03:48:50;;;;;;;49.03;32.20;;;;;;;7.76;100.00;101507.75;5031563;28;20052;-44
2023/04/29 03:51:16;;;;;;;50.00;33.05;;;;;;;7.72;100.00;101506.63;5031451;28;20029;-44
2023/04/29 03:53:41;;;;;;;46.53;31.52;;;;;;;7.71;100.00;101509.66;5031384;28;20030;-45
2023/04/29 03:56:06;;;;;;;50.03;31.20;;;;;;;7.71;100.00;101509.66;5031525;28;20036;-45
2023/04/29 03:58:32;;;;;;;47.20;31.85;;;;;;;7.71;100.00;101506.91;5031483;28;20063;-49
2023/04/29 04:00:57;;;;;;;48.53;30.80;;;;;;;7.69;100.00;101514.63;5031553;28;20124;-44
2023/04/29 04:03:24;;;;;;;44.38;29.52;;;;;;;7.71;100.00;101513.25;5031456;28;20034;-45
2023/04/29 04:05:50;;;;;;;44.92;31.48;;;;;;;7.67;100.00;101514.91;5031557;28;20030;-44
2023/04/29 04:08:15;;;;;;;47.55;30.25;;;;;;;7.65;100.00;101519.84;5031485;28;20576;-47
2023/04/29 04:10:40;;;;;;;45.42;30.98;;;;;;;7.63;100.00;101524.78;5031478;28;20026;-45
2023/04/29 04:13:05;;;;;;;42.50;28.95;;;;;;;7.67;100.00;101531.41;5031751;28;20032;-46
2023/04/29 04:15:31;;;;;;;48.15;30.63;;;;;;;7.64;100.00;101526.44;5030323;28;20029;-49
2023/04/29 04:17:56;;;;;;;45.45;30.95;;;;;;;7.66;100.00;101540.78;5031841;28;20030;-50
2023/04/29 04:20:21;;;;;;;44.08;29.48;;;;;;;7.69;100.00;101533.88;5031668;28;20045;-46
2023/04/29 04:22:47;;;;;;;45.22;29.30;;;;;;;7.71;100.00;101535.28;5031470;28;20021;-50
2023/04/29 04:25:12;;;;;;;43.88;28.98;;;;;;;7.78;100.00;101535.88;5030073;28;20416;-46
2023/04/29 04:27:37;;;;;;;41.88;28.85;;;;;;;7.78;100.00;101535.88;5031315;28;20061;-45
2023/04/29 04:30:03;;;;;;;39.90;28.55;;;;;;;7.79;100.00;101536.69;5029443;28;20047;-45
2023/04/29 04:32:28;;;;;;;47.67;29.63;;;;;;;7.80;100.00;101544.66;5031158;28;20362;-45
2023/04/29 04:34:54;;;;;;;43.38;28.48;;;;;;;7.83;100.00;101548.00;5030993;28;20034;-48
2023/04/29 04:37:19;;;;;;;43.17;28.95;;;;;;;7.81;100.00;101548.28;5030850;28;20022;-45
2023/04/29 04:39:45;;;;;;;44.85;29.92;;;;;;;7.79;100.00;101548.53;5029408;28;20021;-47
2023/04/29 04:42:10;;;;;;;44.25;29.40;;;;;;;7.80;100.00;101552.94;5030699;28;20033;-45
2023/04/29 04:44:36;;;;;;;43.13;29.50;;;;;;;7.80;100.00;101557.63;5030916;28;20030;-45
2023/04/29 04:47:01;;;;;;;40.70;28.58;;;;;;;7.80;100.00;101552.94;5032939;28;20159;-45
2023/04/29 04:49:27;;;;;;;43.25;29.40;;;;;;;7.85;100.00;101563.13;5034710;28;20033;-44
2023/04/29 04:51:52;;;;;;;40.92;28.00;;;;;;;7.86;100.00;101573.06;5034564;28;20474;-48
2023/04/29 04:54:18;;;;;;;42.22;28.77;;;;;;;7.91;100.00;101581.38;5034625;28;20038;-48
2023/04/29 04:56:43;;;;;;;40.20;28.42;;;;;;;7.95;100.00;101581.66;5034398;28;20397;-46
2023/04/29 04:59:09;;;;;;;41.10;28.65;;;;;;;7.95;100.00;101582.47;5034693;28;20108;-47
2023/04/29 05:01:34;;;;;;;40.20;28.67;;;;;;;7.93;100.00;101592.09;5033155;28;20106;-49
2023/04/29 05:04:01;;;;;;;41.42;28.48;;;;;;;7.93;100.00;101592.94;5033131;28;20048;-49
2023/04/29 05:06:26;;;;;;;39.83;28.52;;;;;;;7.90;100.00;101596.25;5034645;28;20026;-46
2023/04/29 05:08:52;;;;;;;39.90;27.92;;;;;;;7.92;100.00;101598.72;5034437;28;20370;-48
2023/04/29 05:11:19;;;;;;;42.67;29.85;;;;;;;7.85;100.00;101593.44;5032928;28;20029;-45
2023/04/29 05:13:44;;;;;;;42.25;28.52;;;;;;;7.92;100.00;101605.06;5034263;28;20029;-45
2023/04/29 05:16:10;;;;;;;40.20;28.02;;;;;;;7.92;100.00;101606.97;5034230;28;20045;-43
2023/04/29 05:18:35;;;;;;;39.75;27.70;;;;;;;7.90;100.00;101610.00;5034130;28;20116;-48
2023/04/29 05:21:01;;;;;;;39.83;27.63;;;;;;;7.90;100.00;101610.00;5034295;28;20061;-47
2023/04/29 05:23:26;;;;;;;42.47;29.58;;;;;;;7.89;100.00;101607.50;5034418;28;20428;-46
2023/04/29 05:25:52;;;;;;;41.58;29.40;;;;;;;7.89;100.00;101611.09;5034236;28;20389;-45
2023/04/29 05:28:18;;;;;;;40.00;28.55;;;;;;;7.88;100.00;101616.91;5033923;28;20049;-47
2023/04/29 05:30:43;;;;;;;41.25;28.23;;;;;;;7.90;100.00;101611.91;5033947;28;20025;-48
2023/04/29 05:33:09;;;;;;;41.45;27.63;;;;;;;7.92;100.00;101621.59;5034090;28;20111;-45
2023/04/29 05:35:34;;;;;;;37.67;25.65;;;;;;;7.94;100.00;101622.13;5033941;28;20115;-47
2023/04/29 05:37:59;;;;;;;39.00;27.10;;;;;;;7.92;100.00;101629.88;5034014;28;20056;-46
2023/04/29 05:40:25;;;;;;;42.03;27.55;;;;;;;7.93;100.00;101626.00;5033797;28;20082;-44
2023/04/29 05:42:50;;;;;;;37.63;25.80;;;;;;;7.99;100.00;101626.84;5033877;28;20354;-46
2023/04/29 05:45:16;;;;;;;37.30;25.30;;;;;;;8.00;100.00;101627.69;5033771;28;20029;-45
2023/04/29 05:47:41;;;;;;;38.08;26.73;;;;;;;7.99;100.00;101626.84;5033835;28;20418;-46
2023/04/29 05:50:07;;;;;;;39.72;27.38;;;;;;;7.98;100.00;101630.72;5033684;28;20022;-47
2023/04/29 05:52:32;;;;;;;37.97;26.08;;;;;;;8.02;100.00;101639.28;5033860;28;20417;-45
2023/04/29 05:54:57;;;;;;;37.70;26.25;;;;;;;7.99;100.00;101642.56;5033559;28;20083;-47
2023/04/29 05:57:23;;;;;;;37.17;27.00;;;;;;;7.96;100.00;101644.75;5033492;28;20029;-45
2023/04/29 05:59:48;;;;;;;38.35;25.55;;;;;;;7.96;100.00;101654.94;5033583;28;20131;-45
2023/04/29 06:02:13;;;;;;;39.58;26.95;;;;;;;7.94;100.00;101652.44;5032263;28;20156;-49
2023/04/29 06:04:40;;;;;;;38.40;26.40;;;;;;;7.99;100.00;101665.41;5032075;28;20037;-47
2023/04/29 06:07:07;;;;;;;37.95;26.10;;;;;;;8.00;100.00;101669.81;5033827;28;20028;-46
2023/04/29 06:09:34;;;;;;;38.42;26.67;;;;;;;8.01;100.00;101676.19;5032028;28;20030;-47
2023/04/29 06:11:59;;;;;;;36.67;25.85;;;;;;;7.99;100.00;101665.41;5033375;28;20803;-46
2023/04/29 06:14:24;;;;;;;37.63;26.42;;;;;;;8.02;100.00;101673.16;5033398;28;20061;-46
2023/04/29 06:16:50;;;;;;;38.20;26.38;;;;;;;8.08;100.00;101676.75;5033437;28;20034;-46
2023/04/29 06:19:15;;;;;;;36.30;27.40;;;;;;;8.09;100.00;101681.19;5033236;28;20600;-44
2023/04/29 06:21:40;;;;;;;35.80;26.23;;;;;;;8.10;100.00;101678.16;5033115;28;20481;-48
2023/04/29 06:24:06;;;;;;;38.25;26.35;;;;;;;8.14;100.00;101683.94;5031736;28;20034;-45
2023/04/29 06:26:32;;;;;;;35.88;26.20;;;;;;;8.15;100.00;101677.34;5032942;28;20049;-45
2023/04/29 06:28:57;;;;;;;37.60;27.00;;;;;;;8.26;100.00;101680.97;5033119;28;20022;-47
2023/04/29 06:31:22;;;;;;;37.47;26.83;;;;;;;8.34;100.00;101687.88;5032953;28;20083;-46
2023/04/29 06:33:47;;;;;;;36.17;25.05;;;;;;;8.42;100.00;101688.19;5032942;28;20076;-47
2023/04/29 06:36:13;;;;;;;33.75;23.80;;;;;;;8.51;100.00;101693.22;5033022;28;20034;-44
2023/04/29 06:38:38;;;;;;;36.05;25.33;;;;;;;8.56;100.00;101695.97;5031514;28;20017;-46
2023/04/29 06:41:04;;;;;;;33.60;23.90;;;;;;;8.62;100.00;101694.91;5032719;28;20104;-46
2023/04/29 06:43:29;;;;;;;34.17;24.77;;;;;;;8.71;100.00;101712.59;5031498;28;20057;-48
2023/04/29 06:45:55;;;;;;;37.13;23.45;;;;;;;8.79;100.00;101710.38;5032924;28;20061;-47
2023/04/29 06:48:21;;;;;;;32.47;24.27;;;;;;;8.80;100.00;101712.88;5033022;28;20033;-47
2023/04/29 06:50:55;;;;;;;37.70;24.23;;;;;;;8.85;100.00;101720.31;5032971;28;20051;-46
2023/04/29 06:53:21;;;;;;;34.33;25.00;;;;;;;8.84;100.00;101722.25;5033082;28;20045;-46
2023/04/29 06:55:47;;;;;;;34.97;24.90;;;;;;;8.88;100.00;101719.78;5033086;28;20032;-47
2023/04/29 06:58:15;;;;;;;33.13;23.25;;;;;;;8.97;100.00;101723.66;5031663;28;20033;-45
2023/04/29 07:00:45;;;;;;;34.22;24.35;;;;;;;9.02;100.00;101731.13;5032904;28;20434;-48
2023/04/29 07:03:11;;;;;;;35.75;25.10;;;;;;;9.11;100.00;101731.41;5032769;28;20539;-45
2023/04/29 07:05:40;;;;;;;34.20;24.15;;;;;;;9.23;100.00;101734.72;5032563;28;20026;-47
2023/04/29 07:08:07;;;;;;;31.73;23.33;;;;;;;9.33;100.00;101748.53;5032503;28;20029;-49
2023/04/29 07:10:33;;;;;;;32.80;23.45;;;;;;;9.34;100.00;101741.91;5031741;28;20025;-46
2023/04/29 07:12:59;;;;;;;33.60;24.05;;;;;;;9.34;100.00;101750.19;5030943;28;20032;-49
2023/04/29 07:15:25;;;;;;;32.35;24.40;;;;;;;9.41;100.00;101752.69;5030750;28;20358;-48
2023/04/29 07:17:50;;;;;;;30.65;24.17;;;;;;;9.41;100.00;101760.13;5032201;28;20044;-46
2023/04/29 07:20:16;;;;;;;33.42;24.52;;;;;;;9.41;100.00;101763.75;5032168;28;20128;-47
2023/04/29 07:22:41;;;;;;;34.83;23.83;;;;;;;9.36;100.00;101763.72;5032051;28;20033;-46
2023/04/29 07:25:07;;;;;;;32.15;24.08;;;;;;;9.42;100.00;101764.56;5031738;28;20353;-47
2023/04/29 07:27:33;;;;;;;32.42;24.20;;;;;;;9.51;100.00;101763.75;5030351;28;20053;-45
2023/04/29 07:30:00;;;;;;;34.42;23.83;;;;;;;9.59;100.00;101767.06;5031756;28;20164;-48
2023/04/29 07:32:25;;;;;;;32.60;24.10;;;;;;;9.67;100.00;101772.00;5030483;28;20104;-47
2023/04/29 07:34:51;;;;;;;29.80;21.60;;;;;;;9.69;100.00;101769.81;5031762;28;20108;-46
2023/04/29 07:37:16;;;;;;;30.23;22.35;;;;;;;9.72;100.00;101771.19;5031676;28;20033;-46
2023/04/29 07:39:42;;;;;;;32.40;23.83;;;;;;;9.78;100.00;101779.19;5031610;28;20389;-45
2023/04/29 07:42:07;;;;;;;34.20;24.05;;;;;;;9.81;100.00;101783.34;5031677;28;20033;-46
2023/04/29 07:44:32;;;;;;;30.65;22.27;;;;;;;9.82;100.00;101788.56;5031659;28;20103;-45
2023/04/29 07:46:58;;;;;;;29.60;23.30;;;;;;;9.84;100.00;101788.31;5031599;28;20385;-46
2023/04/29 07:49:24;;;;;;;30.33;22.50;;;;;;;9.81;100.00;101786.94;5031485;28;20029;-49
2023/04/29 07:51:50;;;;;;;30.88;23.00;;;;;;;9.79;100.00;101791.91;5031265;28;20035;-46
2023/04/29 07:54:15;;;;;;;31.20;22.85;;;;;;;9.88;100.00;101788.59;5031298;28;20029;-44
2023/04/29 07:56:41;;;;;;;30.10;22.25;;;;;;;9.92;100.00;101790.50;5031390;28;20021;-48
2023/04/29 07:59:06;;;;;;;31.52;23.50;;;;;;;9.90;100.00;101797.44;5031303;28;20056;-46
2023/04/29 08:01:31;;;;;;;31.73;23.10;;;;;;;9.92;100.00;101795.22;5031346;28;20052;-49
2023/04/29 08:03:57;;;;;;;30.02;22.52;;;;;;;9.95;100.00;101800.19;5031315;28;20334;-47
2023/04/29 08:06:22;;;;;;;31.33;22.83;;;;;;;9.97;100.00;101803.50;5031239;28;20104;-47
2023/04/29 08:08:48;;;;;;;31.52;21.58;;;;;;;10.08;100.00;101802.38;5029815;28;20400;-47
2023/04/29 08:11:20;;;;;;;33.08;22.00;;;;;;;10.30;100.00;101807.56;5031083;28;20100;-48
2023/04/29 08:13:46;;;;;;;30.27;22.13;;;;;;;10.37;100.00;101796.25;5031306;28;20045;-47
2023/04/29 08:16:12;;;;;;;29.60;21.88;;;;;;;10.49;100.00;101808.91;5031216;28;20575;-46
2023/04/29 08:18:38;;;;;;;29.23;21.38;;;;;;;10.59;100.00;101808.88;5029917;28;20032;-46
2023/04/29 08:21:04;;;;;;;30.15;21.23;;;;;;;10.71;100.00;101805.81;5031561;28;20025;-45
2023/04/29 08:23:29;;;;;;;29.98;20.50;;;;;;;10.86;100.00;101810.44;5035439;28;20679;-49
2023/04/29 08:25:55;;;;;;;29.38;21.08;;;;;;;10.97;99.64;101806.50;5035411;28;20369;-45
2023/04/29 08:28:23;;;;;;;28.02;20.65;;;;;;;11.11;97.55;101819.72;5035220;28;20417;-46
2023/04/29 08:30:49;;;;;;;32.40;21.50;;;;;;;11.06;96.25;101818.63;5035267;28;20033;-48
2023/04/29 08:33:15;;;;;;;29.00;21.00;;;;;;;11.11;96.59;101814.19;5035419;28;20504;-47
2023/04/29 08:35:41;;;;;;;28.35;20.00;;;;;;;11.14;96.78;101825.50;5035118;28;20069;-46
2023/04/29 08:38:07;;;;;;;28.58;20.92;;;;;;;11.25;96.19;101820.72;5035147;28;20500;-47
2023/04/29 08:40:40;;;;;;;30.90;20.33;;;;;;;11.25;95.51;101831.81;5035001;28;20139;-46
2023/04/29 08:43:08;;;;;;;30.10;20.95;;;;;;;11.19;95.25;101819.94;5035218;28;20034;-45
2023/04/29 08:45:35;;;;;;;28.92;20.20;;;;;;;11.27;95.04;101823.22;5035350;28;20045;-47
2023/04/29 08:48:02;;;;;;;29.85;20.58;;;;;;;11.39;94.93;101826.44;5035059;28;20465;-46
2023/04/29 08:50:29;;;;;;;29.40;19.50;;;;;;;11.42;94.09;101836.97;5034770;28;20035;-48
2023/04/29 08:52:55;;;;;;;29.73;20.05;;;;;;;11.45;92.78;101847.50;5034817;28;20405;-45
2023/04/29 08:55:20;;;;;;;29.45;19.48;;;;;;;11.54;93.12;101842.16;5034916;28;20029;-46
2023/04/29 08:57:49;;;;;;;27.95;20.33;;;;;;;11.53;91.88;101840.50;5034983;28;20468;-48
2023/04/29 09:00:14;;;;;;;29.70;19.42;;;;;;;11.70;92.88;101840.09;5034674;28;20049;-46
2023/04/29 09:02:46;;;;;;;27.85;19.48;;;;;;;11.80;90.89;101851.09;5034702;28;20072;-50
2023/04/29 09:05:11;;;;;;;30.10;19.40;;;;;;;12.05;91.15;101837.34;5034772;28;20029;-45
2023/04/29 09:07:40;;;;;;;26.17;19.63;;;;;;;12.33;88.79;101844.81;5034758;28;20028;-48
2023/04/29 09:10:07;;;;;;;26.98;19.05;;;;;;;12.44;87.62;101850.25;5034586;28;20025;-46
2023/04/29 09:12:32;;;;;;;26.75;19.10;;;;;;;12.56;89.90;101841.50;5034568;28;20112;-49
2023/04/29 09:14:58;;;;;;;29.27;20.13;;;;;;;12.58;89.17;101848.41;5034629;28;20108;-46
2023/04/29 09:17:40;;;;;;;27.17;19.10;;;;;;;12.52;89.86;101846.00;5033099;28;20025;-45
2023/04/29 09:20:27;;;;;;;31.83;19.00;;;;;;;12.31;89.32;101858.16;5034522;28;20044;-48
2023/04/29 09:23:03;;;;;;;26.67;19.05;;;;;;;12.02;90.24;101853.44;5034214;28;20034;-47
2023/04/29 09:25:30;;;;;;;27.88;19.02;;;;;;;11.94;90.26;101850.44;5034363;28;20033;-47
2023/04/29 09:27:55;;;;;;;29.05;19.48;;;;;;;11.99;89.60;101853.19;5032932;28;20481;-46
2023/04/29 09:30:21;;;;;;;29.67;19.38;;;;;;;12.04;89.23;101855.09;5034204;28;20025;-46
2023/04/29 09:33:19;;;;;;;27.83;20.33;;;;;;;12.35;90.69;101852.03;5033797;28;20041;-50
2023/04/29 09:35:45;;;;;;;26.33;19.23;;;;;;;12.57;85.97;101854.28;5032870;28;20050;-47
2023/04/29 09:38:15;;;;;;;28.17;19.33;;;;;;;12.74;86.84;101846.28;5034136;28;20419;-49
2023/04/29 09:40:42;;;;;;;26.50;17.90;;;;;;;12.74;83.18;101859.38;5032684;28;20032;-45
2023/04/29 09:43:17;;;;;;;25.77;17.08;;;;;;;12.71;83.12;101857.97;5034041;28;20021;-46
2023/04/29 09:45:46;;;;;;;26.50;17.40;;;;;;;12.67;83.15;101861.66;5033933;28;20030;-45
2023/04/29 09:48:12;;;;;;;25.38;17.08;;;;;;;12.70;82.64;101853.56;5033950;28;20029;-44
2023/04/29 09:50:38;;;;;;;26.98;17.83;;;;;;;12.51;80.85;101869.34;5033761;28;20061;-45
2023/04/29 09:53:08;;;;;;;26.73;17.70;;;;;;;12.52;82.12;101860.72;5034167;28;20030;-44
2023/04/29 09:55:35;;;;;;;26.65;18.05;;;;;;;12.63;82.01;101855.84;5034401;28;20108;-44
2023/04/29 09:58:00;;;;;;;26.40;17.73;;;;;;;12.60;81.65;101860.06;5034178;28;20030;-48
2023/04/29 10:00:33;;;;;;;27.10;18.27;;;;;;;12.59;82.76;101852.84;5034193;28;20034;-46
2023/04/29 10:03:03;;;;;;;26.02;18.30;;;;;;;12.68;83.00;101866.06;5032698;28;20029;-46
2023/04/29 10:05:29;;;;;;;25.60;17.55;;;;;;;12.59;81.22;101874.25;5033698;28;20068;-47
2023/04/29 10:07:56;;;;;;;26.67;17.60;;;;;;;12.63;81.52;101878.06;5033965;28;20119;-48
2023/04/29 10:10:23;;;;;;;28.25;19.15;;;;;;;12.63;81.34;101880.84;5033434;28;20030;-47
2023/04/29 10:12:51;;;;;;;25.70;17.67;;;;;;;12.65;80.08;101878.59;5033513;28;20409;-47
2023/04/29 10:15:32;;;;;;;28.73;18.20;;;;;;;12.74;81.76;101876.84;5031946;28;20033;-47
2023/04/29 10:18:13;;;;;;;24.02;15.75;;;;;;;12.91;78.14;101872.75;5033606;28;20028;-48
2023/04/29 10:20:44;;;;;;;23.90;15.57;;;;;;;12.98;75.70;101875.16;5033288;28;20036;-49
2023/04/29 10:23:11;;;;;;;26.52;17.95;;;;;;;13.18;78.40;101872.13;5033260;28;20037;-46
2023/04/29 10:25:37;;;;;;;24.45;15.85;;;;;;;13.32;74.02;101877.75;5033153;28;20091;-44
2023/04/29 10:28:03;;;;;;;25.63;16.17;;;;;;;13.26;73.67;101885.34;5032931;28;20124;-45
2023/04/29 10:30:29;;;;;;;23.55;15.45;;;;;;;13.19;73.37;101889.59;5032741;28;20025;-45
2023/04/29 10:32:58;;;;;;;24.85;15.52;;;;;;;13.31;75.49;101881.66;5033092;28;20056;-45
2023/04/29 10:35:24;;;;;;;25.70;16.45;;;;;;;13.32;75.20;101886.09;5033157;28;20022;-45
2023/04/29 10:37:50;;;;;;;24.90;16.25;;;;;;;13.05;74.25;101890.34;5033008;28;20492;-46
2023/04/29 10:40:35;;;;;;;24.40;16.00;;;;;;;12.89;76.42;101892.47;5033148;28;20110;-45
2023/04/29 10:43:01;;;;;;;23.30;15.75;;;;;;;12.87;77.33;101899.47;5033020;28;20133;-46
2023/04/29 10:45:35;;;;;;;25.38;17.40;;;;;;;12.74;76.47;101899.03;5031846;28;20517;-45
2023/04/29 10:48:01;;;;;;;24.73;16.70;;;;;;;12.67;76.80;101894.97;5032781;28;20025;-46
2023/04/29 10:50:48;;;;;;;24.58;16.58;;;;;;;12.81;79.03;101895.91;5032541;28;20028;-45
2023/04/29 10:53:14;;;;;;;24.80;15.60;;;;;;;12.84;76.95;101900.03;5032678;28;20021;-44
2023/04/29 10:55:41;;;;;;;25.40;16.70;;;;;;;12.85;77.01;101891.41;5032455;28;20116;-46
2023/04/29 10:58:42;;;;;;;25.20;16.20;;;;;;;13.02;77.98;101884.56;5031133;28;20108;-46
2023/04/29 11:01:10;;;;;;;25.60;15.60;;;;;;;13.01;74.69;101894.03;5032451;28;20109;-47
2023/04/29 11:03:53;;;;;;;25.45;16.17;;;;;;;13.18;76.72;101893.50;5032409;28;20034;-45
2023/04/29 11:06:18;;;;;;;24.30;15.70;;;;;;;13.35;72.73;101887.44;5032530;28;20108;-45
2023/04/29 11:08:44;;;;;;;24.08;15.70;;;;;;;13.40;74.43;101899.34;5032342;28;20371;-46
2023/04/29 11:11:09;;;;;;;24.13;15.80;;;;;;;13.49;74.95;101899.50;5032062;28;20104;-46